Haymount, North Carolina
Current Conditions -  °F | °C
As of 7:53 AM on Sunday 23 Nov 2014 (Local Time) from KFAY Reporting Station
Broken Clouds Broken Clouds  
Wind Chill: 42°   Ceiling: 11000
Heat Index: 44°   Visibility: 10mi
Dew Point: 36°   Wind: 5mph
Humidity: 73%   Direction: 50°NE
Pressure: 30.24"   Gusts: NA
Location:  35.0522°N, 78.906°W
Report Text: KFAY 231253Z AUTO 05004KT 10SM BKN110 07/02 A3024 RMK AO2 SLP236 T00670022
Loading
Personal Weather Stations






























Interactive Weather Map New forecast layout! Learn more

10-Day Weather Forecast

Advertisements
Track Severe Weather on mobile